createdAt,value
2023-01-20T00:00:56.084Z,26.10
2023-01-20T00:06:20.412Z,26.73
2023-01-20T00:11:45.029Z,27.43
2023-01-20T00:17:07.273Z,27.70
2023-01-20T00:22:29.887Z,28.07
2023-01-20T00:27:53.707Z,25.33
2023-01-20T00:33:16.827Z,25.30
2023-01-20T00:38:39.267Z,25.37
2023-01-20T00:44:02.743Z,27.40
2023-01-20T00:49:25.215Z,25.20
2023-01-20T00:54:47.611Z,25.77
2023-01-20T01:00:10.629Z,26.07
2023-01-20T01:05:34.438Z,29.33
2023-01-20T01:10:57.298Z,27.50
2023-01-20T01:16:27.007Z,28.00
2023-01-20T01:21:49.414Z,28.42
2023-01-20T01:27:12.246Z,28.23
2023-01-20T01:32:35.188Z,28.20
2023-01-20T01:37:57.508Z,27.37
2023-01-20T01:43:32.653Z,27.17
2023-01-20T01:48:59.778Z,27.23
2023-01-20T01:54:27.494Z,27.57
2023-01-20T01:59:50.481Z,27.63
2023-01-20T02:05:13.425Z,26.70
2023-01-20T02:10:36.608Z,27.80
2023-01-20T02:16:19.036Z,24.77
2023-01-20T02:22:28.614Z,27.83
2023-01-20T02:28:32.976Z,25.23
2023-01-20T02:34:18.285Z,23.47
2023-01-20T02:39:45.802Z,24.37
2023-01-20T02:45:33.093Z,26.17
2023-01-20T02:51:15.308Z,25.87
2023-01-20T02:56:40.882Z,24.87
2023-01-20T03:02:17.048Z,25.00
2023-01-20T03:07:43.043Z,24.07
2023-01-20T03:13:22.198Z,26.20
2023-01-20T03:18:47.154Z,26.80
2023-01-20T03:24:15.114Z,26.77
2023-01-20T03:29:37.335Z,27.93
2023-01-20T03:35:01.482Z,28.33
2023-01-20T03:40:26.204Z,27.27
2023-01-20T03:45:59.294Z,27.63
2023-01-20T03:51:29.862Z,29.47
2023-01-20T03:57:15.097Z,28.53
2023-01-20T04:02:40.374Z,27.03
2023-01-20T04:08:06.879Z,26.97
2023-01-20T04:13:29.763Z,29.33
2023-01-20T04:18:57.614Z,26.77
2023-01-20T04:24:39.863Z,28.97
2023-01-20T04:30:02.238Z,29.33
2023-01-20T04:35:29.285Z,30.27
2023-01-20T04:40:51.589Z,27.35
2023-01-20T04:46:24.812Z,27.93
2023-01-20T04:51:47.192Z,26.43
2023-01-20T04:57:09.449Z,27.23
2023-01-20T05:02:31.845Z,28.77
2023-01-20T05:07:54.307Z,26.00
2023-01-20T05:13:17.221Z,24.57
2023-01-20T05:18:39.803Z,25.73
2023-01-20T05:24:02.693Z,22.43
2023-01-20T05:29:25.060Z,25.90
2023-01-20T05:34:47.347Z,24.53
2023-01-20T05:40:10.074Z,27.47
2023-01-20T05:45:32.937Z,25.63
2023-01-20T05:50:55.384Z,26.68
2023-01-20T05:56:18.908Z,25.13
2023-01-20T06:01:42.065Z,26.00
2023-01-20T06:07:04.431Z,26.03
2023-01-20T06:12:27.009Z,26.80
2023-01-20T06:17:49.754Z,23.77
2023-01-20T06:23:15.214Z,25.93
2023-01-20T06:28:37.459Z,25.10
2023-01-20T06:34:00.470Z,25.48
2023-01-20T06:39:22.917Z,25.73
2023-01-20T06:44:45.801Z,25.50
2023-01-20T06:50:08.841Z,24.40
2023-01-20T06:55:31.215Z,23.87
2023-01-20T07:00:54.099Z,24.10
2023-01-20T07:06:24.149Z,25.62
2023-01-20T07:17:03.139Z,24.35
2023-01-20T07:22:25.703Z,25.82
2023-01-20T07:27:47.948Z,24.33
2023-01-20T07:33:10.498Z,23.83
2023-01-20T07:38:33.777Z,23.07
2023-01-20T07:43:58.323Z,22.45
2023-01-20T07:49:21.466Z,25.25
2023-01-20T07:54:43.786Z,25.05
2023-01-20T08:00:06.375Z,25.08
2023-01-20T08:05:29.273Z,26.40
2023-01-20T08:10:51.831Z,26.80
2023-01-20T08:16:16.747Z,25.97
2023-01-20T08:21:44.237Z,25.70
2023-01-20T08:27:06.573Z,29.70
2023-01-20T08:32:30.052Z,26.68
2023-01-20T08:37:55.534Z,27.07
2023-01-20T08:43:17.762Z,25.52
2023-01-20T08:48:43.425Z,26.27
2023-01-20T08:54:06.603Z,25.90
2023-01-20T08:59:29.497Z,25.95
2023-01-20T09:04:54.789Z,26.10
2023-01-20T09:10:18.219Z,25.52
2023-01-20T09:15:41.520Z,28.05
2023-01-20T09:21:06.192Z,26.70
2023-01-20T09:26:35.778Z,26.02
2023-01-20T09:31:58.984Z,26.17
2023-01-20T09:37:40.131Z,24.98
2023-01-20T09:43:57.274Z,25.75
2023-01-20T09:49:48.483Z,25.37
2023-01-20T09:55:19.043Z,27.43
2023-01-20T10:00:49.134Z,25.82
2023-01-20T10:06:26.680Z,24.47
2023-01-20T10:11:53.186Z,25.68
2023-01-20T10:17:23.347Z,24.90
2023-01-20T10:22:53.368Z,26.07
2023-01-20T10:28:23.024Z,26.17
2023-01-20T10:33:50.111Z,26.77
2023-01-20T10:39:47.311Z,25.57
2023-01-20T10:45:13.298Z,25.97
2023-01-20T10:51:03.171Z,29.60
2023-01-20T10:56:40.864Z,16.57
2023-01-20T11:02:12.650Z,23.97
2023-01-20T11:07:40.269Z,23.47
2023-01-20T11:13:07.110Z,25.33
2023-01-20T11:18:39.838Z,24.07
2023-01-20T11:24:11.442Z,46.05
2023-01-20T11:29:38.876Z,25.50
2023-01-20T11:35:05.298Z,23.07
2023-01-20T11:40:41.906Z,21.73
2023-01-20T11:46:24.775Z,22.52
2023-01-20T11:51:57.273Z,22.33
2023-01-20T11:57:24.000Z,21.57
2023-01-20T12:02:49.349Z,20.68
2023-01-20T12:08:15.789Z,19.73
2023-01-20T12:14:05.675Z,37.97
2023-01-20T12:19:34.110Z,24.20
2023-01-20T12:25:08.725Z,26.40
2023-01-20T12:30:49.074Z,30.82
2023-01-20T12:36:38.758Z,27.75
2023-01-20T12:42:25.143Z,27.63
2023-01-20T12:48:00.590Z,29.20
2023-01-20T12:53:40.525Z,28.53
2023-01-20T13:05:03.689Z,35.17
2023-01-20T13:10:53.459Z,27.13
2023-01-20T13:16:37.027Z,26.23
2023-01-20T13:22:07.910Z,26.83
2023-01-20T13:27:37.451Z,27.17
2023-01-20T13:33:06.432Z,39.88
2023-01-20T13:38:39.603Z,27.80
2023-01-20T13:44:05.736Z,26.77
2023-01-20T13:49:55.578Z,27.82
2023-01-20T13:55:39.913Z,20.57
2023-01-20T14:01:09.103Z,28.20
2023-01-20T14:06:36.320Z,29.33
2023-01-20T14:12:05.331Z,28.93
2023-01-20T14:17:31.513Z,30.23
2023-01-20T14:22:56.525Z,30.17
2023-01-20T14:28:25.620Z,28.73
2023-01-20T14:33:53.411Z,30.47
2023-01-20T14:39:20.073Z,29.37
2023-01-20T14:44:46.526Z,28.43
2023-01-20T14:50:11.191Z,31.23
2023-01-20T14:55:50.319Z,27.65
2023-01-20T15:01:19.063Z,28.35
2023-01-20T15:06:43.315Z,22.43
2023-01-20T15:12:27.408Z,31.55
2023-01-20T15:18:11.545Z,33.53
2023-01-20T15:23:49.569Z,30.82
2023-01-20T15:29:29.334Z,31.45
2023-01-20T15:34:57.406Z,40.07
2023-01-20T15:40:31.975Z,35.28
2023-01-20T15:45:57.142Z,32.33
2023-01-20T15:51:39.112Z,41.37
2023-01-20T15:57:03.523Z,32.37
2023-01-20T16:02:32.617Z,32.60
2023-01-20T16:07:56.824Z,34.90
2023-01-20T16:13:22.596Z,37.77
2023-01-20T16:18:47.230Z,38.17
2023-01-20T16:24:12.543Z,39.83
2023-01-20T16:29:37.788Z,37.93
2023-01-20T16:35:02.291Z,40.47
2023-01-20T16:40:30.077Z,43.27
2023-01-20T16:45:58.622Z,41.90
2023-01-20T16:51:26.851Z,31.60
2023-01-20T16:56:53.114Z,43.00
2023-01-20T17:02:18.049Z,43.13
2023-01-20T17:07:42.212Z,38.60
2023-01-20T17:13:07.178Z,40.33
2023-01-20T17:18:31.873Z,35.70
2023-01-20T17:23:57.047Z,37.03
2023-01-20T17:29:23.535Z,36.95
2023-01-20T17:34:47.686Z,36.35
2023-01-20T17:40:13.429Z,33.10
2023-01-20T17:45:37.148Z,32.83
2023-01-20T17:50:59.796Z,34.70
2023-01-20T17:56:25.337Z,36.17
2023-01-20T18:01:51.002Z,35.68
2023-01-20T18:07:14.123Z,36.13
2023-01-20T18:12:37.130Z,36.60
2023-01-20T18:18:01.586Z,36.37
2023-01-20T18:23:23.906Z,37.55
2023-01-20T18:28:51.296Z,37.60
2023-01-20T18:34:20.112Z,37.25
2023-01-20T18:39:44.530Z,36.43
2023-01-20T18:45:09.423Z,32.73
2023-01-20T18:50:31.701Z,38.25
2023-01-20T18:55:54.095Z,37.42
2023-01-20T19:01:29.325Z,40.43
2023-01-20T19:06:55.363Z,41.33
2023-01-20T19:12:17.660Z,40.60
2023-01-20T19:17:40.195Z,38.90
2023-01-20T19:23:05.076Z,38.90
2023-01-20T19:28:29.156Z,38.43
2023-01-20T19:33:53.637Z,37.73
2023-01-20T19:39:18.270Z,39.08
2023-01-20T19:44:40.579Z,35.33
2023-01-20T19:50:04.334Z,35.50
2023-01-20T19:55:27.085Z,35.05
2023-01-20T20:00:49.486Z,35.10
2023-01-20T20:06:12.412Z,36.15
2023-01-20T20:11:36.300Z,34.53
2023-01-20T20:17:00.143Z,35.50
2023-01-20T20:22:23.317Z,33.65
2023-01-20T20:27:46.078Z,34.40
2023-01-20T20:33:08.682Z,35.35
2023-01-20T20:38:31.278Z,35.73
2023-01-20T20:43:54.204Z,35.95
2023-01-20T20:49:19.524Z,35.70
2023-01-20T20:54:41.986Z,33.92
2023-01-20T21:00:04.470Z,32.33
2023-01-20T21:05:27.216Z,31.12
2023-01-20T21:10:49.702Z,29.42
2023-01-20T21:16:20.046Z,32.05
2023-01-20T21:21:43.287Z,32.37
2023-01-20T21:27:06.815Z,31.80
2023-01-20T21:32:29.465Z,29.72
2023-01-20T21:37:51.799Z,30.60
2023-01-20T21:43:32.227Z,31.68
2023-01-20T21:49:12.136Z,29.47
2023-01-20T21:59:51.675Z,29.23
2023-01-20T22:05:15.114Z,30.62
2023-01-20T22:10:38.787Z,30.12
2023-01-20T22:16:01.248Z,30.95
2023-01-20T22:21:29.770Z,31.85
2023-01-20T22:26:55.979Z,30.57
2023-01-20T22:32:18.311Z,30.82
2023-01-20T22:37:42.228Z,28.62
2023-01-20T22:43:04.583Z,27.60
2023-01-20T22:48:27.256Z,26.35
2023-01-20T22:53:50.383Z,26.25
2023-01-20T22:59:14.023Z,26.52
2023-01-20T23:04:36.324Z,26.33
2023-01-20T23:09:58.659Z,26.45
2023-01-20T23:15:21.249Z,25.60
2023-01-20T23:20:43.792Z,26.68
2023-01-20T23:31:41.710Z,25.03
2023-01-20T23:37:16.244Z,24.40
2023-01-20T23:42:38.496Z,22.80
2023-01-20T23:48:00.869Z,22.40
2023-01-20T23:53:23.657Z,23.30
2023-01-20T23:58:45.974Z,21.63
